createdAt,value
2022-08-16T00:01:11.784Z,4.53
2022-08-16T00:03:40.965Z,4.87
2022-08-16T00:06:08.087Z,4.60
2022-08-16T00:08:37.650Z,5.20
2022-08-16T00:11:15.821Z,4.18
2022-08-16T00:13:53.686Z,4.32
2022-08-16T00:17:05.366Z,4.30
2022-08-16T00:19:09.720Z,4.30
2022-08-16T00:21:40.593Z,4.00
2022-08-16T00:24:12.127Z,4.07
2022-08-16T00:26:44.392Z,4.20
2022-08-16T00:29:15.981Z,4.00
2022-08-16T00:32:01.470Z,4.22
2022-08-16T00:34:44.430Z,4.22
2022-08-16T00:37:20.978Z,4.40
2022-08-16T00:39:58.210Z,4.35
2022-08-16T00:42:30.571Z,4.13
2022-08-16T00:45:09.299Z,3.90
2022-08-16T00:47:49.015Z,4.47
2022-08-16T00:50:20.155Z,4.78
2022-08-16T00:52:51.135Z,4.25
2022-08-16T00:55:20.689Z,4.57
2022-08-16T00:57:59.854Z,4.20
2022-08-16T01:00:29.564Z,4.60
2022-08-16T01:02:59.558Z,4.13
2022-08-16T01:05:26.376Z,4.60
2022-08-16T01:07:53.912Z,4.47
2022-08-16T01:10:31.399Z,4.40
2022-08-16T01:13:26.652Z,4.80
2022-08-16T01:16:00.968Z,4.63
2022-08-16T01:18:53.085Z,4.78
2022-08-16T01:21:33.766Z,4.53
2022-08-16T01:24:53.175Z,4.88
2022-08-16T01:27:21.719Z,4.40
2022-08-16T01:29:59.975Z,4.55
2022-08-16T01:32:34.201Z,4.50
2022-08-16T01:35:02.558Z,4.60
2022-08-16T01:37:35.672Z,4.60
2022-08-16T01:40:07.059Z,4.72
2022-08-16T01:42:34.358Z,4.63
2022-08-16T01:45:01.619Z,4.30
2022-08-16T01:47:29.442Z,4.70
2022-08-16T01:50:42.343Z,4.65
2022-08-16T01:52:46.776Z,4.45
2022-08-16T01:55:13.503Z,4.53
2022-08-16T01:57:41.191Z,4.00
2022-08-16T02:00:20.938Z,4.63
2022-08-16T02:02:56.374Z,4.15
2022-08-16T02:05:23.590Z,4.32
2022-08-16T02:07:51.841Z,4.53
2022-08-16T02:10:19.621Z,4.65
2022-08-16T02:12:51.297Z,4.70
2022-08-16T02:15:26.085Z,4.60
2022-08-16T02:17:58.334Z,4.47
2022-08-16T02:20:28.214Z,4.65
2022-08-16T02:22:58.605Z,5.10
2022-08-16T02:25:50.811Z,5.03
2022-08-16T02:28:17.139Z,5.32
2022-08-16T02:30:48.757Z,5.28
2022-08-16T02:33:17.678Z,5.15
2022-08-16T02:35:53.749Z,5.80
2022-08-16T02:38:22.418Z,5.17
2022-08-16T02:40:48.953Z,5.00
2022-08-16T02:43:16.104Z,5.00
2022-08-16T02:45:42.701Z,5.10
2022-08-16T02:48:29.946Z,4.97
2022-08-16T02:51:06.127Z,5.30
2022-08-16T02:53:36.999Z,5.18
2022-08-16T02:56:05.544Z,5.10
2022-08-16T02:58:37.015Z,5.47
2022-08-16T03:01:03.712Z,5.10
2022-08-16T03:04:29.170Z,4.97
2022-08-16T03:06:42.241Z,5.30
2022-08-16T03:09:10.706Z,4.90
2022-08-16T03:11:40.337Z,4.75
2022-08-16T03:14:07.445Z,4.63
2022-08-16T03:16:39.074Z,4.80
2022-08-16T03:19:09.164Z,5.72
2022-08-16T03:21:38.308Z,6.18
2022-08-16T03:24:27.687Z,6.00
2022-08-16T03:26:57.971Z,5.90
2022-08-16T03:29:30.049Z,5.63
2022-08-16T03:31:59.172Z,5.90
2022-08-16T03:34:26.611Z,6.10
2022-08-16T03:36:53.758Z,5.80
2022-08-16T03:39:20.671Z,5.30
2022-08-16T03:41:50.380Z,5.43
2022-08-16T03:44:44.545Z,5.50
2022-08-16T03:47:05.082Z,5.25
2022-08-16T03:49:37.352Z,5.30
2022-08-16T03:52:04.638Z,4.47
2022-08-16T03:54:31.216Z,4.63
2022-08-16T03:56:59.004Z,5.07
2022-08-16T03:59:25.678Z,5.20
2022-08-16T04:01:56.092Z,5.65
2022-08-16T04:04:32.493Z,5.50
2022-08-16T04:07:00.483Z,6.00
2022-08-16T04:09:35.539Z,5.13
2022-08-16T04:12:10.557Z,5.05
2022-08-16T04:14:46.408Z,5.20
2022-08-16T04:17:15.431Z,5.10
2022-08-16T04:19:45.558Z,4.90
2022-08-16T04:22:12.767Z,5.10
2022-08-16T04:24:39.248Z,5.32
2022-08-16T04:27:10.008Z,5.47
2022-08-16T04:29:43.333Z,4.88
2022-08-16T04:32:13.879Z,5.00
2022-08-16T04:34:40.729Z,5.43
2022-08-16T04:37:07.809Z,6.00
2022-08-16T04:39:46.915Z,5.72
2022-08-16T04:42:26.019Z,6.15
2022-08-16T04:44:55.493Z,5.63
2022-08-16T04:47:31.629Z,5.45
2022-08-16T04:50:00.773Z,5.28
2022-08-16T04:52:33.622Z,5.30
2022-08-16T04:55:07.402Z,6.00
2022-08-16T04:57:34.941Z,5.60
2022-08-16T05:00:32.765Z,5.80
2022-08-16T05:02:56.083Z,7.10
2022-08-16T05:05:25.163Z,6.40
2022-08-16T05:08:00.057Z,6.63
2022-08-16T05:10:28.340Z,6.53
2022-08-16T05:12:56.813Z,5.97
2022-08-16T05:15:23.391Z,5.70
2022-08-16T05:17:58.580Z,5.78
2022-08-16T05:20:39.248Z,5.68
2022-08-16T05:23:13.768Z,5.50
2022-08-16T05:25:48.724Z,6.32
2022-08-16T05:28:16.568Z,7.32
2022-08-16T05:30:43.342Z,7.40
2022-08-16T05:33:16.753Z,9.88
2022-08-16T05:35:54.955Z,17.13
2022-08-16T05:38:32.305Z,7.00
2022-08-16T05:41:02.825Z,4.90
2022-08-16T05:43:32.179Z,4.50
2022-08-16T05:46:29.442Z,4.28
2022-08-16T05:49:03.609Z,4.70
2022-08-16T05:51:38.332Z,5.10
2022-08-16T05:54:06.420Z,5.30
2022-08-16T05:56:34.268Z,5.03
2022-08-16T05:59:06.075Z,5.47
2022-08-16T06:01:37.923Z,5.40
2022-08-16T06:04:13.333Z,5.05
2022-08-16T06:06:56.961Z,4.80
2022-08-16T06:09:25.835Z,4.63
2022-08-16T06:12:26.770Z,4.80
2022-08-16T06:14:59.640Z,9.37
2022-08-16T06:17:41.416Z,9.02
2022-08-16T06:20:24.200Z,14.13
2022-08-16T06:23:02.868Z,5.13
2022-08-16T06:25:36.200Z,4.97
2022-08-16T06:28:08.722Z,4.30
2022-08-16T06:30:43.513Z,4.07
2022-08-16T06:33:22.214Z,4.50
2022-08-16T06:35:54.680Z,4.55
2022-08-16T06:38:32.183Z,4.90
2022-08-16T06:41:03.724Z,5.00
2022-08-16T06:43:30.830Z,4.95
2022-08-16T06:45:58.886Z,4.38
2022-08-16T06:48:32.963Z,4.20
2022-08-16T06:51:04.638Z,4.53
2022-08-16T06:53:35.420Z,4.50
2022-08-16T06:56:05.853Z,6.45
2022-08-16T06:58:33.591Z,4.95
2022-08-16T07:01:03.949Z,4.35
2022-08-16T07:03:55.901Z,4.85
2022-08-16T07:06:26.663Z,4.50
2022-08-16T07:08:54.646Z,4.82
2022-08-16T07:11:47.359Z,4.82
2022-08-16T07:14:26.355Z,4.70
2022-08-16T07:16:57.897Z,4.47
2022-08-16T07:20:03.812Z,3.80
2022-08-16T07:22:37.965Z,4.03
2022-08-16T07:25:00.113Z,4.43
2022-08-16T07:27:27.174Z,3.95
2022-08-16T07:29:56.351Z,3.70
2022-08-16T07:32:29.664Z,4.60
2022-08-16T07:34:58.321Z,6.00
2022-08-16T07:37:24.939Z,4.60
2022-08-16T07:39:52.530Z,4.53
2022-08-16T07:42:26.050Z,3.80
2022-08-16T07:45:02.095Z,4.23
2022-08-16T07:47:32.015Z,3.88
2022-08-16T07:50:00.172Z,4.07
2022-08-16T07:52:32.439Z,4.20
2022-08-16T07:54:59.826Z,4.13
2022-08-16T07:57:26.859Z,4.37
2022-08-16T07:59:53.422Z,4.55
2022-08-16T08:02:23.906Z,4.57
2022-08-16T08:04:55.722Z,4.20
2022-08-16T08:07:22.995Z,4.20
2022-08-16T08:09:54.150Z,7.73
2022-08-16T08:12:31.516Z,3.80
2022-08-16T08:15:02.027Z,3.80
2022-08-16T08:17:42.854Z,3.95
2022-08-16T08:20:20.815Z,3.90
2022-08-16T08:22:54.222Z,4.10
2022-08-16T08:25:54.403Z,3.78
2022-08-16T08:28:16.177Z,3.67
2022-08-16T08:31:00.504Z,3.97
2022-08-16T08:33:31.432Z,3.88
2022-08-16T08:36:00.802Z,3.63
2022-08-16T08:38:45.045Z,4.10
2022-08-16T08:41:15.388Z,4.20
2022-08-16T08:43:47.190Z,3.67
2022-08-16T08:46:21.103Z,7.43
2022-08-16T08:48:59.720Z,4.00
2022-08-16T08:51:35.830Z,3.78
2022-08-16T08:54:09.125Z,4.10
2022-08-16T08:56:37.672Z,3.10
2022-08-16T08:59:13.606Z,3.80
2022-08-16T09:01:56.672Z,3.67
2022-08-16T09:04:28.610Z,3.88
2022-08-16T09:06:56.527Z,3.35
2022-08-16T09:09:25.402Z,3.75
2022-08-16T09:12:06.318Z,3.50
2022-08-16T09:14:35.266Z,3.63
2022-08-16T09:17:11.905Z,3.65
2022-08-16T09:19:50.302Z,4.32
2022-08-16T09:22:21.461Z,3.47
2022-08-16T09:24:52.456Z,3.75
2022-08-16T09:27:23.367Z,4.00
2022-08-16T09:30:00.008Z,3.65
2022-08-16T09:32:28.948Z,3.80
2022-08-16T09:34:58.445Z,3.50
2022-08-16T09:37:29.708Z,3.90
2022-08-16T09:39:59.659Z,3.80
2022-08-16T09:42:28.436Z,5.07
2022-08-16T09:45:11.420Z,3.65
2022-08-16T09:47:56.616Z,4.00
2022-08-16T09:50:33.273Z,3.50
2022-08-16T09:53:15.207Z,3.33
2022-08-16T09:55:49.640Z,3.80
2022-08-16T09:58:41.893Z,3.47
2022-08-16T10:01:11.525Z,3.97
2022-08-16T10:03:38.511Z,3.60
2022-08-16T10:06:25.899Z,3.93
2022-08-16T10:09:05.247Z,4.57
2022-08-16T10:11:52.503Z,5.00
2022-08-16T10:14:19.714Z,4.97
2022-08-16T10:16:48.922Z,4.72
2022-08-16T10:19:19.382Z,5.13
2022-08-16T10:21:46.589Z,5.28
2022-08-16T10:24:28.319Z,4.72
2022-08-16T10:27:18.900Z,4.60
2022-08-16T10:29:59.954Z,4.15
2022-08-16T10:32:30.583Z,3.70
2022-08-16T10:34:59.213Z,3.38
2022-08-16T10:37:32.834Z,3.97
2022-08-16T10:40:06.428Z,3.85
2022-08-16T10:42:52.901Z,3.92
2022-08-16T10:45:19.839Z,3.80
2022-08-16T10:47:47.157Z,3.80
2022-08-16T10:50:23.003Z,3.80
2022-08-16T10:52:50.638Z,3.67
2022-08-16T10:55:45.073Z,3.83
2022-08-16T10:58:17.152Z,3.83
2022-08-16T11:00:46.040Z,3.92
2022-08-16T11:06:00.809Z,3.45
2022-08-16T11:08:35.412Z,4.20
2022-08-16T11:11:14.150Z,4.00
2022-08-16T11:14:06.173Z,3.97
2022-08-16T11:19:20.125Z,4.65
2022-08-16T11:24:42.352Z,3.40
2022-08-16T11:27:23.067Z,3.38
2022-08-16T11:29:53.391Z,3.40
2022-08-16T11:32:31.012Z,3.83
2022-08-16T11:35:13.255Z,3.65
2022-08-16T11:38:46.759Z,3.80
2022-08-16T11:40:52.617Z,3.75
2022-08-16T11:43:23.361Z,3.72
2022-08-16T11:45:53.751Z,4.00
2022-08-16T11:48:22.296Z,3.72
2022-08-16T11:50:49.273Z,3.40
2022-08-16T11:53:17.311Z,3.47
2022-08-16T11:55:44.537Z,3.35
2022-08-16T11:58:11.523Z,3.10
2022-08-16T12:00:51.137Z,3.42
2022-08-16T12:03:19.178Z,3.00
2022-08-16T12:05:46.848Z,3.08
2022-08-16T12:08:18.904Z,3.33
2022-08-16T12:10:46.841Z,3.60
2022-08-16T12:13:14.827Z,3.47
2022-08-16T12:15:41.736Z,3.47
2022-08-16T12:18:08.971Z,3.25
2022-08-16T12:20:38.777Z,3.05
2022-08-16T12:23:06.639Z,3.13
2022-08-16T12:25:36.105Z,3.50
2022-08-16T12:28:06.051Z,3.00
2022-08-16T12:30:38.572Z,3.40
2022-08-16T12:33:07.750Z,3.00
2022-08-16T12:35:35.941Z,3.05
2022-08-16T12:38:38.152Z,2.92
2022-08-16T12:40:50.855Z,2.57
2022-08-16T12:43:23.483Z,3.10
2022-08-16T12:45:53.276Z,3.53
2022-08-16T12:48:42.399Z,2.72
2022-08-16T12:51:19.577Z,3.00
2022-08-16T12:53:47.974Z,3.00
2022-08-16T12:56:16.704Z,2.60
2022-08-16T12:58:51.846Z,2.75
2022-08-16T13:01:26.763Z,2.22
2022-08-16T13:04:20.317Z,2.80
2022-08-16T13:06:45.350Z,2.60
2022-08-16T13:09:23.653Z,2.75
2022-08-16T13:12:01.668Z,2.55
2022-08-16T13:14:40.134Z,2.63
2022-08-16T13:17:15.516Z,2.50
2022-08-16T13:20:06.601Z,2.60
2022-08-16T13:22:31.621Z,2.75
2022-08-16T13:24:59.572Z,2.83
2022-08-16T13:28:03.019Z,2.50
2022-08-16T13:30:36.300Z,2.45
2022-08-16T13:33:00.433Z,2.30
2022-08-16T13:35:27.729Z,2.65
2022-08-16T13:38:01.251Z,2.40
2022-08-16T13:40:27.810Z,2.20
2022-08-16T13:42:54.305Z,2.67
2022-08-16T13:45:20.882Z,2.97
2022-08-16T13:47:48.529Z,2.80
2022-08-16T13:50:31.443Z,2.47
2022-08-16T13:53:06.471Z,2.35
2022-08-16T13:55:33.189Z,2.70
2022-08-16T13:58:35.472Z,2.50
2022-08-16T14:00:46.351Z,2.30
2022-08-16T14:03:21.549Z,2.30
2022-08-16T14:05:52.417Z,2.38
2022-08-16T14:08:20.973Z,2.30
2022-08-16T14:10:51.801Z,2.30
2022-08-16T14:13:21.056Z,2.33
2022-08-16T14:15:48.691Z,2.47
2022-08-16T14:18:20.245Z,2.38
2022-08-16T14:20:48.501Z,2.40
2022-08-16T14:23:23.651Z,2.40
2022-08-16T14:25:53.878Z,2.28
2022-08-16T14:28:23.479Z,2.22
2022-08-16T14:30:50.328Z,2.40
2022-08-16T14:33:18.496Z,2.30
2022-08-16T14:35:49.078Z,2.53
2022-08-16T14:38:23.949Z,2.50
2022-08-16T14:40:55.490Z,2.28
2022-08-16T14:43:23.578Z,2.50
2022-08-16T14:45:50.357Z,2.38
2022-08-16T14:48:25.108Z,2.50
2022-08-16T14:50:53.607Z,2.15
2022-08-16T14:53:20.127Z,2.22
2022-08-16T14:55:47.045Z,2.38
2022-08-16T14:58:19.440Z,2.50
2022-08-16T15:00:50.409Z,2.57
2022-08-16T15:03:19.232Z,2.03
2022-08-16T15:05:48.319Z,2.28
2022-08-16T15:08:17.102Z,2.20
2022-08-16T15:10:46.947Z,2.20
2022-08-16T15:13:13.930Z,2.30
2022-08-16T15:15:43.342Z,2.20
2022-08-16T15:18:12.167Z,2.50
2022-08-16T15:20:39.472Z,2.47
2022-08-16T15:23:08.933Z,2.22
2022-08-16T15:25:47.233Z,2.50
2022-08-16T15:28:31.482Z,2.40
2022-08-16T15:31:03.633Z,2.50
2022-08-16T15:33:32.955Z,2.20
2022-08-16T15:36:00.136Z,2.30
2022-08-16T15:38:54.669Z,2.60
2022-08-16T15:41:42.473Z,2.40
2022-08-16T15:44:23.078Z,2.60
2022-08-16T15:46:54.989Z,2.30
2022-08-16T15:49:34.423Z,2.60
2022-08-16T15:52:01.682Z,2.50
2022-08-16T15:54:32.587Z,2.72
2022-08-16T15:57:11.413Z,2.53
2022-08-16T15:59:48.684Z,2.80
2022-08-16T16:02:29.462Z,2.80
2022-08-16T16:05:06.620Z,2.60
2022-08-16T16:07:33.998Z,2.95
2022-08-16T16:10:04.790Z,2.72
2022-08-16T16:12:53.096Z,2.67
2022-08-16T16:15:20.133Z,2.80
2022-08-16T16:17:50.727Z,2.77
2022-08-16T16:20:18.460Z,2.90
2022-08-16T16:22:46.465Z,2.97
2022-08-16T16:25:15.839Z,2.78
2022-08-16T16:27:43.815Z,3.00
2022-08-16T16:30:33.452Z,3.10
2022-08-16T16:32:59.448Z,2.85
2022-08-16T16:35:32.577Z,3.00
2022-08-16T16:37:59.599Z,2.92
2022-08-16T16:40:28.846Z,2.90
2022-08-16T16:42:59.971Z,3.03
2022-08-16T16:45:34.816Z,2.70
2022-08-16T16:48:12.368Z,2.83
2022-08-16T16:50:45.296Z,2.95
2022-08-16T16:53:17.250Z,2.95
2022-08-16T16:55:51.554Z,2.90
2022-08-16T16:58:43.506Z,2.70
2022-08-16T17:01:20.750Z,2.95
2022-08-16T17:04:19.301Z,2.85
2022-08-16T17:06:53.715Z,2.67
2022-08-16T17:09:23.978Z,3.00
2022-08-16T17:11:55.474Z,2.65
2022-08-16T17:14:32.761Z,2.75
2022-08-16T17:17:00.880Z,2.47
2022-08-16T17:19:31.677Z,2.90
2022-08-16T17:21:59.328Z,2.70
2022-08-16T17:24:31.380Z,2.78
2022-08-16T17:27:07.752Z,2.78
2022-08-16T17:29:34.849Z,2.70
2022-08-16T17:32:47.369Z,2.95
2022-08-16T17:35:11.531Z,3.00
2022-08-16T17:37:48.790Z,2.90
2022-08-16T17:40:47.958Z,2.92
2022-08-16T17:43:18.587Z,2.90
2022-08-16T17:45:46.026Z,2.70
2022-08-16T17:48:13.492Z,2.57
2022-08-16T17:50:40.852Z,3.03
2022-08-16T17:53:08.065Z,2.65
2022-08-16T17:55:38.081Z,2.88
2022-08-16T17:58:21.260Z,2.88
2022-08-16T18:00:52.133Z,2.70
2022-08-16T18:04:02.538Z,3.00
2022-08-16T18:06:12.573Z,2.88
2022-08-16T18:08:40.604Z,3.10
2022-08-16T18:11:10.277Z,2.60
2022-08-16T18:13:43.381Z,3.10
2022-08-16T18:16:11.159Z,2.63
2022-08-16T18:18:37.751Z,2.80
2022-08-16T18:21:22.845Z,2.75
2022-08-16T18:23:49.462Z,2.95
2022-08-16T18:26:16.019Z,3.10
2022-08-16T18:28:42.637Z,3.25
2022-08-16T18:31:09.356Z,9.00
2022-08-16T18:33:43.646Z,3.03
2022-08-16T18:36:20.549Z,3.20
2022-08-16T18:38:49.324Z,2.97
2022-08-16T18:41:16.490Z,3.05
2022-08-16T18:43:54.253Z,3.40
2022-08-16T18:46:29.453Z,3.00
2022-08-16T18:48:56.027Z,3.40
2022-08-16T18:51:25.577Z,3.30
2022-08-16T18:53:54.738Z,3.33
2022-08-16T18:56:21.173Z,3.38
2022-08-16T18:58:49.020Z,3.58
2022-08-16T19:01:15.719Z,3.53
2022-08-16T19:03:42.358Z,3.33
2022-08-16T19:06:14.212Z,3.25
2022-08-16T19:08:43.439Z,3.78
2022-08-16T19:11:20.024Z,3.70
2022-08-16T19:13:46.731Z,3.88
2022-08-16T19:16:14.308Z,3.37
2022-08-16T19:18:41.222Z,3.40
2022-08-16T19:21:09.467Z,3.65
2022-08-16T19:23:37.274Z,4.03
2022-08-16T19:26:24.601Z,3.85
2022-08-16T19:28:58.476Z,4.43
2022-08-16T19:31:32.671Z,4.00
2022-08-16T19:33:59.898Z,3.75
2022-08-16T19:36:35.232Z,4.30
2022-08-16T19:39:08.613Z,4.35
2022-08-16T19:41:37.580Z,4.00
2022-08-16T19:44:05.610Z,4.72
2022-08-16T19:46:32.993Z,3.92
2022-08-16T19:48:59.589Z,3.88
2022-08-16T19:51:26.104Z,4.03
2022-08-16T19:53:52.619Z,5.00
2022-08-16T19:56:22.300Z,5.13
2022-08-16T19:59:16.342Z,4.90
2022-08-16T20:01:41.665Z,5.40
2022-08-16T20:04:11.841Z,6.18
2022-08-16T20:06:38.994Z,6.17
2022-08-16T20:09:06.430Z,4.80
2022-08-16T20:11:34.726Z,5.40
2022-08-16T20:14:01.925Z,4.80
2022-08-16T20:16:28.600Z,4.30
2022-08-16T20:18:55.107Z,4.77
2022-08-16T20:21:21.592Z,4.60
2022-08-16T20:23:48.100Z,4.28
2022-08-16T20:26:14.787Z,4.18
2022-08-16T20:28:54.185Z,5.10
2022-08-16T20:31:25.566Z,4.20
2022-08-16T20:33:53.140Z,4.47
2022-08-16T20:36:19.970Z,4.32
2022-08-16T20:38:47.641Z,4.65
2022-08-16T20:41:16.372Z,4.30
2022-08-16T20:43:43.336Z,5.07
2022-08-16T20:46:10.049Z,4.50
2022-08-16T20:48:38.961Z,4.40
2022-08-16T20:51:06.768Z,4.40
2022-08-16T20:53:33.933Z,4.30
2022-08-16T20:56:00.450Z,4.50
2022-08-16T20:58:26.892Z,5.10
2022-08-16T21:00:53.509Z,4.63
2022-08-16T21:03:20.084Z,5.22
2022-08-16T21:05:46.788Z,4.90
2022-08-16T21:08:27.946Z,5.27
2022-08-16T21:11:05.074Z,5.78
2022-08-16T21:13:33.508Z,4.93
2022-08-16T21:16:02.205Z,5.35
2022-08-16T21:18:28.979Z,4.78
2022-08-16T21:20:56.139Z,14.03
2022-08-16T21:23:22.804Z,5.25
2022-08-16T21:25:58.437Z,6.13
2022-08-16T21:28:40.361Z,4.75
2022-08-16T21:31:16.911Z,5.57
2022-08-16T21:33:55.053Z,5.30
2022-08-16T21:36:35.854Z,5.82
2022-08-16T21:39:06.785Z,5.25
2022-08-16T21:41:35.399Z,5.63
2022-08-16T21:44:02.004Z,5.32
2022-08-16T21:46:28.573Z,4.80
2022-08-16T21:48:55.191Z,5.22
2022-08-16T21:51:22.355Z,5.10
2022-08-16T21:53:48.827Z,5.28
2022-08-16T21:56:17.122Z,4.95
2022-08-16T21:58:52.740Z,4.80
2022-08-16T22:01:22.702Z,5.45
2022-08-16T22:04:01.488Z,5.78
2022-08-16T22:06:37.584Z,5.50
2022-08-16T22:09:05.276Z,5.45
2022-08-16T22:11:31.883Z,5.40
2022-08-16T22:13:59.438Z,5.60
2022-08-16T22:16:29.817Z,4.93
2022-08-16T22:18:58.559Z,4.97
2022-08-16T22:21:25.863Z,5.65
2022-08-16T22:23:56.961Z,5.60
2022-08-16T22:26:30.925Z,5.82
2022-08-16T22:29:04.469Z,6.15
2022-08-16T22:31:32.225Z,6.03
2022-08-16T22:34:01.829Z,5.78
2022-08-16T22:36:29.656Z,5.20
2022-08-16T22:39:01.870Z,5.15
2022-08-16T22:41:31.779Z,5.30
2022-08-16T22:43:59.134Z,4.80
2022-08-16T22:46:25.637Z,5.20
2022-08-16T22:48:52.153Z,5.07
2022-08-16T22:51:21.412Z,4.97
2022-08-16T22:53:48.212Z,5.45
2022-08-16T22:56:15.592Z,5.55
2022-08-16T22:58:42.292Z,6.10
2022-08-16T23:01:10.066Z,5.10
2022-08-16T23:03:37.762Z,5.70
2022-08-16T23:06:05.596Z,5.05
2022-08-16T23:08:39.624Z,5.32
2022-08-16T23:11:13.505Z,4.88
2022-08-16T23:13:53.241Z,5.63
2022-08-16T23:16:33.810Z,5.20
2022-08-16T23:19:10.268Z,4.82
2022-08-16T23:21:39.789Z,5.22
2022-08-16T23:24:08.042Z,4.90
2022-08-16T23:26:47.203Z,4.93
2022-08-16T23:29:23.665Z,5.05
2022-08-16T23:31:53.607Z,5.32
2022-08-16T23:34:21.680Z,4.97
2022-08-16T23:36:48.078Z,5.60
2022-08-16T23:39:14.496Z,5.50
2022-08-16T23:41:41.014Z,5.32
2022-08-16T23:44:55.282Z,5.90
2022-08-16T23:46:54.011Z,5.50
2022-08-16T23:49:59.216Z,5.43
2022-08-16T23:52:10.630Z,5.60
2022-08-16T23:54:37.072Z,5.68
2022-08-16T23:57:03.766Z,5.57
2022-08-16T23:59:30.363Z,5.63
